createdAt,value
2019-04-05T00:01:16.545Z,8.37
2019-04-05T00:03:47.217Z,8.35
2019-04-05T00:06:17.599Z,8.37
2019-04-05T00:08:48.456Z,8.30
2019-04-05T00:11:18.731Z,8.32
2019-04-05T00:13:49.029Z,8.30
2019-04-05T00:16:19.569Z,8.23
2019-04-05T00:18:50.235Z,7.94
2019-04-05T00:21:20.441Z,7.88
2019-04-05T00:23:53.848Z,7.86
2019-04-05T00:26:24.060Z,7.76
2019-04-05T00:28:54.447Z,7.73
2019-04-05T00:31:25.355Z,7.70
2019-04-05T00:33:56.245Z,7.67
2019-04-05T00:36:26.900Z,7.60
2019-04-05T00:38:57.533Z,7.37
2019-04-05T00:41:28.042Z,7.38
2019-04-05T00:43:59.166Z,7.37
2019-04-05T00:46:29.504Z,7.37
2019-04-05T00:48:59.770Z,7.19
2019-04-05T00:51:30.074Z,7.16
2019-04-05T00:54:00.608Z,7.17
2019-04-05T00:56:31.161Z,7.14
2019-04-05T00:59:01.395Z,7.06
2019-04-05T01:01:32.563Z,7.15
2019-04-05T01:04:04.888Z,7.12
2019-04-05T01:06:35.569Z,7.19
2019-04-05T01:09:07.876Z,7.11
2019-04-05T01:11:38.631Z,6.86
2019-04-05T01:14:09.476Z,6.79
2019-04-05T01:16:40.007Z,6.84
2019-04-05T01:19:10.645Z,6.92
2019-04-05T01:21:45.657Z,6.81
2019-04-05T01:24:16.919Z,6.88
2019-04-05T01:26:47.875Z,6.93
2019-04-05T01:29:20.943Z,6.92
2019-04-05T01:31:51.527Z,6.79
2019-04-05T01:34:21.786Z,6.85
2019-04-05T01:36:52.321Z,6.88
2019-04-05T01:39:23.162Z,6.75
2019-04-05T01:41:53.482Z,6.69
2019-04-05T01:44:23.786Z,6.68
2019-04-05T01:46:54.437Z,6.61
2019-04-05T01:49:24.771Z,6.58
2019-04-05T01:51:55.634Z,6.52
2019-04-05T01:54:25.959Z,6.63
2019-04-05T01:56:56.356Z,6.65
2019-04-05T01:59:26.747Z,6.74
2019-04-05T02:01:57.075Z,6.79
2019-04-05T02:04:27.365Z,6.79
2019-04-05T02:06:57.646Z,6.66
2019-04-05T02:09:28.093Z,6.63
2019-04-05T02:11:58.519Z,6.65
2019-04-05T02:14:29.043Z,6.49
2019-04-05T02:17:01.414Z,6.44
2019-04-05T02:19:32.145Z,6.40
2019-04-05T02:22:02.988Z,6.38
2019-04-05T02:24:33.289Z,6.39
2019-04-05T02:27:03.872Z,6.35
2019-04-05T02:29:34.190Z,6.30
2019-04-05T02:32:05.441Z,6.23
2019-04-05T02:34:35.863Z,6.19
2019-04-05T02:37:06.981Z,6.29
2019-04-05T02:39:37.293Z,6.28
2019-04-05T02:42:07.815Z,6.27
2019-04-05T02:44:38.804Z,6.21
2019-04-05T02:47:11.785Z,6.26
2019-04-05T02:49:42.846Z,6.27
2019-04-05T02:52:14.804Z,6.23
2019-04-05T02:54:45.912Z,6.35
2019-04-05T02:57:16.602Z,6.39
2019-04-05T02:59:49.515Z,6.39
2019-04-05T03:02:19.853Z,6.31
2019-04-05T03:04:50.169Z,6.10
2019-04-05T03:07:20.334Z,6.08
2019-04-05T03:09:50.849Z,6.05
2019-04-05T03:12:21.068Z,5.98
2019-04-05T03:14:52.725Z,6.11
2019-04-05T03:17:23.662Z,6.14
2019-04-05T03:19:55.414Z,6.19
2019-04-05T03:22:29.345Z,6.26
2019-04-05T03:25:00.776Z,6.32
2019-04-05T03:27:34.150Z,6.48
2019-04-05T03:30:05.954Z,6.55
2019-04-05T03:32:36.556Z,6.66
2019-04-05T03:35:06.966Z,6.64
2019-04-05T03:37:37.309Z,6.73
2019-04-05T03:40:07.868Z,6.81
2019-04-05T03:42:38.773Z,6.79
2019-04-05T03:45:09.027Z,6.61
2019-04-05T03:47:39.486Z,6.49
2019-04-05T03:50:10.201Z,6.45
2019-04-05T03:52:41.123Z,6.51
2019-04-05T03:55:11.427Z,6.61
2019-04-05T03:57:41.621Z,6.53
2019-04-05T04:00:12.109Z,6.45
2019-04-05T04:02:42.520Z,6.36
2019-04-05T04:05:13.173Z,6.25
2019-04-05T04:07:43.513Z,6.14
2019-04-05T04:10:17.376Z,6.10
2019-04-05T04:12:48.061Z,6.13
2019-04-05T04:15:18.427Z,6.18
2019-04-05T04:17:49.091Z,6.26
2019-04-05T04:20:39.311Z,6.40
2019-04-05T04:23:10.193Z,6.49
2019-04-05T04:25:41.196Z,6.58
2019-04-05T04:28:11.776Z,6.72
2019-04-05T04:30:42.528Z,6.78
2019-04-05T04:33:12.878Z,6.86
2019-04-05T04:35:44.760Z,6.92
2019-04-05T04:38:15.788Z,7.04
2019-04-05T04:40:47.360Z,7.15
2019-04-05T04:43:18.624Z,7.15
2019-04-05T04:45:49.475Z,7.11
2019-04-05T04:48:20.923Z,7.09
2019-04-05T04:50:51.600Z,7.13
2019-04-05T04:53:21.997Z,7.12
2019-04-05T04:55:52.237Z,7.18
2019-04-05T04:58:22.740Z,7.16
2019-04-05T05:00:53.045Z,7.13
2019-04-05T05:03:23.602Z,7.14
2019-04-05T05:05:53.925Z,7.21
2019-04-05T05:08:24.221Z,7.25
2019-04-05T05:10:55.637Z,7.31
2019-04-05T05:13:43.827Z,7.40
2019-04-05T05:16:14.529Z,7.55
2019-04-05T05:18:45.025Z,7.59
2019-04-05T05:21:17.603Z,7.60
2019-04-05T05:23:48.721Z,7.79
2019-04-05T05:26:20.680Z,7.96
2019-04-05T05:29:00.167Z,8.10
2019-04-05T05:31:31.636Z,8.23
2019-04-05T05:34:02.118Z,8.32
2019-04-05T05:36:32.732Z,8.28
2019-04-05T05:39:04.806Z,8.22
2019-04-05T05:41:35.136Z,8.16
2019-04-05T05:44:05.852Z,8.06
2019-04-05T05:46:36.144Z,7.96
2019-04-05T05:49:07.311Z,7.90
2019-04-05T05:51:40.306Z,7.73
2019-04-05T05:54:10.565Z,7.65
2019-04-05T05:56:41.074Z,7.61
2019-04-05T05:59:11.304Z,7.62
2019-04-05T06:01:41.730Z,7.60
2019-04-05T06:04:12.822Z,7.57
2019-04-05T06:06:43.701Z,7.49
2019-04-05T06:09:14.440Z,7.57
2019-04-05T06:11:45.103Z,7.62
2019-04-05T06:14:15.784Z,7.65
2019-04-05T06:16:46.883Z,7.67
2019-04-05T06:19:18.671Z,7.70
2019-04-05T06:21:50.063Z,7.80
2019-04-05T06:24:21.134Z,7.81
2019-04-05T06:26:51.388Z,7.94
2019-04-05T06:29:22.022Z,8.02
2019-04-05T06:31:54.694Z,8.04
2019-04-05T06:34:25.378Z,8.20
2019-04-05T06:36:55.575Z,8.15
2019-04-05T06:39:27.346Z,8.25
2019-04-05T06:41:57.962Z,8.29
2019-04-05T06:44:28.270Z,8.37
2019-04-05T06:46:58.987Z,8.36
2019-04-05T06:49:29.351Z,8.51
2019-04-05T06:52:02.861Z,8.81
2019-04-05T06:54:35.687Z,8.84
2019-04-05T06:57:05.951Z,8.95
2019-04-05T06:59:36.428Z,9.09
2019-04-05T07:02:06.828Z,8.99
2019-04-05T07:04:37.806Z,9.10
2019-04-05T07:07:08.034Z,9.28
2019-04-05T07:09:39.130Z,9.50
2019-04-05T07:12:09.396Z,9.52
2019-04-05T07:14:40.311Z,9.55
2019-04-05T07:17:10.902Z,9.64
2019-04-05T07:19:41.170Z,9.66
2019-04-05T07:22:11.382Z,9.70
2019-04-05T07:24:41.787Z,9.74
2019-04-05T07:27:12.216Z,9.74
2019-04-05T07:29:42.680Z,9.93
2019-04-05T07:32:13.359Z,10.01
2019-04-05T07:34:43.620Z,10.06
2019-04-05T07:37:14.343Z,10.15
2019-04-05T07:39:44.871Z,10.13
2019-04-05T07:42:15.241Z,10.16
2019-04-05T07:44:45.943Z,10.19
2019-04-05T07:47:16.198Z,10.38
2019-04-05T07:49:47.244Z,10.60
2019-04-05T07:52:17.542Z,10.61
2019-04-05T07:54:48.325Z,10.87
2019-04-05T07:57:18.549Z,10.54
2019-04-05T07:59:48.780Z,10.57
2019-04-05T08:02:19.734Z,10.76
2019-04-05T08:04:50.368Z,10.96
2019-04-05T08:07:21.469Z,11.09
2019-04-05T08:09:52.034Z,11.04
2019-04-05T08:12:22.340Z,11.18
2019-04-05T08:14:53.267Z,11.16
2019-04-05T08:17:24.103Z,11.40
2019-04-05T08:19:54.403Z,11.73
2019-04-05T08:22:25.227Z,11.94
2019-04-05T08:24:55.561Z,11.83
2019-04-05T08:27:25.906Z,11.79
2019-04-05T08:29:56.165Z,11.69
2019-04-05T08:32:26.892Z,11.73
2019-04-05T08:34:57.157Z,12.00
2019-04-05T08:37:27.481Z,12.34
2019-04-05T08:39:57.906Z,12.31
2019-04-05T08:42:28.311Z,12.44
2019-04-05T08:44:59.016Z,12.44
2019-04-05T08:47:29.333Z,12.34
2019-04-05T08:49:59.615Z,12.23
2019-04-05T08:52:29.940Z,12.36
2019-04-05T08:55:01.884Z,12.35
2019-04-05T08:57:32.434Z,12.47
2019-04-05T09:00:03.120Z,12.69
2019-04-05T09:02:33.572Z,12.69
2019-04-05T09:05:05.153Z,12.83
2019-04-05T09:07:36.228Z,13.26
2019-04-05T09:10:06.792Z,13.26
2019-04-05T09:12:39.161Z,13.55
2019-04-05T09:15:10.577Z,13.75
2019-04-05T09:17:40.966Z,14.19
2019-04-05T09:20:11.350Z,14.24
2019-04-05T09:22:42.092Z,14.51
2019-04-05T09:25:12.546Z,14.82
2019-04-05T09:27:43.445Z,14.94
2019-04-05T09:30:13.990Z,15.21
2019-04-05T09:32:44.646Z,15.78
2019-04-05T09:35:15.089Z,16.30
2019-04-05T09:37:45.267Z,15.83
2019-04-05T09:40:16.037Z,14.85
2019-04-05T09:42:46.814Z,14.72
2019-04-05T09:45:17.458Z,14.01
2019-04-05T09:47:47.735Z,13.91
2019-04-05T09:50:18.144Z,13.94
2019-04-05T09:52:48.389Z,14.53
2019-04-05T09:55:19.320Z,14.98
2019-04-05T09:57:49.897Z,15.22
2019-04-05T10:00:25.607Z,15.63
2019-04-05T10:02:56.079Z,15.42
2019-04-05T10:05:27.100Z,15.59
2019-04-05T10:07:58.226Z,15.79
2019-04-05T10:10:28.435Z,15.56
2019-04-05T10:12:58.933Z,15.74
2019-04-05T10:15:29.344Z,15.74
2019-04-05T10:17:59.596Z,15.41
2019-04-05T10:20:29.925Z,15.70
2019-04-05T10:23:00.979Z,14.76
2019-04-05T10:25:31.261Z,14.91
2019-04-05T10:28:01.635Z,15.32
2019-04-05T10:30:31.900Z,16.03
2019-04-05T10:33:02.158Z,16.24
2019-04-05T10:35:33.982Z,16.31
2019-04-05T10:38:05.026Z,16.93
2019-04-05T10:40:35.553Z,17.71
2019-04-05T10:43:05.878Z,17.62
2019-04-05T10:45:44.633Z,18.04
2019-04-05T10:48:15.038Z,17.38
2019-04-05T10:50:46.636Z,17.19
2019-04-05T10:53:17.198Z,17.72
2019-04-05T10:55:47.796Z,17.36
2019-04-05T10:58:18.075Z,17.46
2019-04-05T11:00:48.719Z,18.10
2019-04-05T11:03:19.135Z,18.65
2019-04-05T11:05:49.603Z,18.08
2019-04-05T11:08:20.032Z,17.30
2019-04-05T11:10:50.467Z,16.51
2019-04-05T11:13:20.870Z,15.98
2019-04-05T11:15:52.190Z,16.10
2019-04-05T11:18:23.371Z,15.96
2019-04-05T11:20:54.049Z,15.79
2019-04-05T11:23:24.800Z,15.58
2019-04-05T11:25:55.795Z,15.28
2019-04-05T11:28:26.861Z,14.42
2019-04-05T11:30:58.065Z,14.47
2019-04-05T11:33:28.942Z,14.90
2019-04-05T11:36:00.473Z,15.82
2019-04-05T11:38:31.207Z,16.39
2019-04-05T11:41:02.512Z,17.12
2019-04-05T11:43:37.525Z,17.91
2019-04-05T11:46:08.626Z,17.84
2019-04-05T11:48:41.285Z,17.24
2019-04-05T11:51:11.480Z,17.60
2019-04-05T11:53:41.782Z,17.54
2019-04-05T11:56:14.843Z,17.56
2019-04-05T11:58:48.682Z,16.64
2019-04-05T12:01:24.158Z,16.77
2019-04-05T12:03:54.415Z,17.18
2019-04-05T12:06:24.954Z,17.23
2019-04-05T12:08:55.201Z,17.10
2019-04-05T12:11:25.713Z,17.12
2019-04-05T12:13:56.708Z,17.47
2019-04-05T12:16:28.475Z,17.16
2019-04-05T12:18:59.729Z,16.83
2019-04-05T12:21:32.559Z,16.52
2019-04-05T12:24:04.238Z,16.14
2019-04-05T12:26:35.217Z,16.05
2019-04-05T12:30:03.829Z,15.76
2019-04-05T12:32:41.248Z,15.84
2019-04-05T12:36:17.684Z,15.92
2019-04-05T12:38:54.374Z,15.87
2019-04-05T12:41:24.942Z,16.06
2019-04-05T12:43:55.399Z,16.68
2019-04-05T12:46:26.984Z,17.23
2019-04-05T12:48:57.503Z,17.97
2019-04-05T12:51:40.728Z,18.97
2019-04-05T12:54:11.921Z,19.46
2019-04-05T12:56:43.867Z,19.75
2019-04-05T12:59:36.185Z,19.45
2019-04-05T13:02:18.491Z,19.56
2019-04-05T13:04:51.598Z,19.70
2019-04-05T13:07:23.425Z,19.52
2019-04-05T13:09:55.062Z,20.21
2019-04-05T13:12:27.007Z,20.63
2019-04-05T13:15:11.272Z,20.83
2019-04-05T13:17:31.627Z,21.55
2019-04-05T13:20:02.486Z,22.38
2019-04-05T13:22:33.580Z,22.24
2019-04-05T13:25:06.078Z,21.95
2019-04-05T13:27:41.274Z,21.54
2019-04-05T13:30:11.801Z,20.89
2019-04-05T13:32:42.820Z,21.22
2019-04-05T13:35:30.186Z,21.59
2019-04-05T13:38:01.329Z,21.13
2019-04-05T13:40:32.905Z,21.39
2019-04-05T13:43:06.979Z,21.01
2019-04-05T13:45:37.607Z,20.60
2019-04-05T13:48:08.911Z,20.01
2019-04-05T13:50:42.482Z,20.11
2019-04-05T13:53:15.172Z,19.73
2019-04-05T13:55:49.417Z,19.76
2019-04-05T13:58:24.021Z,19.72
2019-04-05T14:00:55.161Z,19.79
2019-04-05T14:03:25.595Z,19.96
2019-04-05T14:05:55.855Z,20.26
2019-04-05T14:08:26.472Z,20.75
2019-04-05T14:10:56.837Z,21.25
2019-04-05T14:13:27.721Z,21.37
2019-04-05T14:15:58.014Z,21.67
2019-04-05T14:18:28.263Z,22.02
2019-04-05T14:20:59.090Z,21.22
2019-04-05T14:23:29.377Z,20.50
2019-04-05T14:26:00.326Z,19.91
2019-04-05T14:28:32.322Z,19.63
2019-04-05T14:31:03.104Z,18.77
2019-04-05T14:33:34.032Z,18.59
2019-04-05T14:36:04.333Z,18.21
2019-04-05T14:38:34.692Z,17.99
2019-04-05T14:41:05.263Z,18.09
2019-04-05T14:43:37.825Z,17.73
2019-04-05T14:46:08.261Z,17.20
2019-04-05T14:48:39.967Z,17.56
2019-04-05T14:51:10.748Z,17.82
2019-04-05T14:53:41.552Z,17.52
2019-04-05T14:56:11.803Z,17.54
2019-04-05T14:58:42.694Z,17.65
2019-04-05T15:01:13.146Z,17.33
2019-04-05T15:03:43.509Z,17.39
2019-04-05T15:06:14.079Z,17.40
2019-04-05T15:08:48.049Z,17.30
2019-04-05T15:11:18.827Z,17.21
2019-04-05T15:13:49.069Z,17.25
2019-04-05T15:16:23.278Z,16.92
2019-04-05T15:18:52.746Z,16.73
2019-04-05T15:21:22.952Z,16.79
2019-04-05T15:23:53.220Z,16.56
2019-04-05T15:26:23.943Z,16.52
2019-04-05T15:28:55.127Z,16.74
2019-04-05T15:31:26.698Z,16.64
2019-04-05T15:33:58.396Z,16.50
2019-04-05T15:36:31.560Z,16.27
2019-04-05T15:39:02.814Z,16.25
2019-04-05T15:41:33.159Z,16.32
2019-04-05T15:44:05.449Z,16.06
2019-04-05T15:46:35.994Z,15.91
2019-04-05T15:49:07.440Z,15.65
2019-04-05T15:51:38.082Z,15.48
2019-04-05T15:54:08.385Z,15.28
2019-04-05T15:56:39.191Z,15.22
2019-04-05T15:59:10.031Z,15.08
2019-04-05T16:01:41.361Z,14.86
2019-04-05T16:04:11.589Z,14.90
2019-04-05T16:06:41.818Z,14.98
2019-04-05T16:09:15.623Z,15.00
2019-04-05T16:11:46.003Z,14.86
2019-04-05T16:14:16.290Z,14.91
2019-04-05T16:16:48.639Z,14.90
2019-04-05T16:19:18.843Z,14.83
2019-04-05T16:21:49.202Z,14.82
2019-04-05T16:24:20.179Z,14.86
2019-04-05T16:26:51.185Z,14.83
2019-04-05T16:29:23.261Z,14.78
2019-04-05T16:31:53.567Z,14.57
2019-04-05T16:34:23.864Z,14.52
2019-04-05T16:36:54.187Z,14.38
2019-04-05T16:39:24.497Z,14.25
2019-04-05T16:41:54.811Z,14.29
2019-04-05T16:44:25.010Z,14.27
2019-04-05T16:46:56.510Z,14.02
2019-04-05T16:49:26.971Z,13.87
2019-04-05T16:51:57.288Z,13.75
2019-04-05T16:54:30.379Z,13.67
2019-04-05T16:57:01.010Z,13.67
2019-04-05T16:59:32.530Z,13.69
2019-04-05T17:02:03.954Z,13.66
2019-04-05T17:04:34.346Z,13.62
2019-04-05T17:07:05.160Z,13.58
2019-04-05T17:09:36.701Z,13.53
2019-04-05T17:12:07.864Z,13.41
2019-04-05T17:14:38.401Z,13.10
2019-04-05T17:17:09.755Z,13.10
2019-04-05T17:19:43.182Z,12.78
2019-04-05T17:22:13.996Z,12.78
2019-04-05T17:24:44.617Z,12.93
2019-04-05T17:27:15.513Z,12.93
2019-04-05T17:29:47.143Z,12.84
2019-04-05T17:32:17.879Z,12.75
2019-04-05T17:34:48.255Z,12.75
2019-04-05T17:37:18.659Z,12.85
2019-04-05T17:39:49.057Z,12.71
2019-04-05T17:42:19.816Z,12.71
2019-04-05T17:44:50.903Z,12.76
2019-04-05T17:47:21.333Z,12.74
2019-04-05T17:49:51.835Z,12.67
2019-04-05T17:52:22.570Z,12.57
2019-04-05T17:54:53.163Z,12.36
2019-04-05T17:57:23.391Z,12.36
2019-04-05T17:59:53.907Z,12.21
2019-04-05T18:02:25.705Z,12.10
2019-04-05T18:04:58.165Z,12.03
2019-04-05T18:07:35.529Z,11.92
2019-04-05T18:10:17.589Z,11.78
2019-04-05T18:12:50.981Z,11.76
2019-04-05T18:15:21.688Z,11.71
2019-04-05T18:17:53.053Z,11.64
2019-04-05T18:20:23.799Z,11.63
2019-04-05T18:22:54.872Z,11.56
2019-04-05T18:25:25.155Z,11.63
2019-04-05T18:27:55.621Z,11.52
2019-04-05T18:30:26.328Z,11.38
2019-04-05T18:32:58.880Z,11.44
2019-04-05T18:35:29.777Z,11.48
2019-04-05T18:38:01.758Z,11.49
2019-04-05T18:40:39.952Z,11.48
2019-04-05T18:43:09.542Z,11.49
2019-04-05T18:45:41.881Z,11.52
2019-04-05T18:48:13.948Z,11.55
2019-04-05T18:50:44.368Z,11.37
2019-04-05T18:53:14.624Z,11.36
2019-04-05T18:55:48.097Z,11.44
2019-04-05T18:58:18.466Z,11.26
2019-04-05T19:00:50.033Z,11.33
2019-04-05T19:03:20.500Z,11.20
2019-04-05T19:05:51.005Z,11.25
2019-04-05T19:08:22.939Z,11.24
2019-04-05T19:10:53.185Z,11.17
2019-04-05T19:13:23.745Z,11.19
2019-04-05T19:15:56.463Z,11.18
2019-04-05T19:18:27.625Z,11.16
2019-04-05T19:21:03.587Z,11.14
2019-04-05T19:23:35.049Z,11.01
2019-04-05T19:26:05.633Z,11.05
2019-04-05T19:28:36.080Z,11.07
2019-04-05T19:48:55.160Z,10.97
2019-04-05T19:51:25.929Z,11.03
2019-04-05T19:54:01.538Z,11.14
2019-04-05T19:56:29.699Z,11.24
2019-04-05T19:59:00.063Z,11.21
2019-04-05T20:01:30.890Z,11.22
2019-04-05T20:04:03.701Z,11.20
2019-04-05T20:06:34.239Z,11.27
2019-04-05T20:09:07.095Z,11.33
2019-04-05T20:11:40.075Z,11.40
2019-04-05T20:14:10.705Z,11.48
2019-04-05T20:16:41.795Z,11.45
2019-04-05T20:19:12.184Z,11.47
2019-04-05T20:21:42.468Z,11.50
2019-04-05T20:24:14.266Z,11.49
2019-04-05T20:26:47.780Z,11.56
2019-04-05T20:29:18.414Z,11.53
2019-04-05T20:31:49.208Z,11.51
2019-04-05T20:34:19.433Z,11.52
2019-04-05T20:36:49.761Z,11.51
2019-04-05T20:39:28.507Z,11.49
2019-04-05T20:41:59.165Z,11.53
2019-04-05T20:44:39.764Z,11.56
2019-04-05T20:47:16.424Z,11.62
2019-04-05T20:49:48.672Z,11.55
2019-04-05T20:52:19.356Z,11.56
2019-04-05T20:54:50.342Z,11.65
2019-04-05T20:57:20.994Z,11.65
2019-04-05T20:59:51.346Z,11.70
2019-04-05T21:02:21.593Z,11.65
2019-04-05T21:04:52.027Z,11.60
2019-04-05T21:07:25.741Z,11.64
2019-04-05T21:09:59.304Z,11.58
2019-04-05T21:12:29.993Z,11.49
2019-04-05T21:15:00.942Z,11.36
2019-04-05T21:17:34.015Z,11.43
2019-04-05T21:20:05.040Z,11.45
2019-04-05T21:22:35.572Z,11.49
2019-04-05T21:25:06.642Z,11.51
2019-04-05T21:27:55.574Z,11.52
2019-04-05T21:30:43.594Z,11.53
2019-04-05T21:33:15.434Z,11.46
2019-04-05T21:35:46.912Z,11.36
2019-04-05T21:38:18.172Z,11.47
2019-04-05T21:40:48.699Z,11.47
2019-04-05T21:43:19.285Z,11.45
2019-04-05T21:45:50.576Z,11.46
2019-04-05T21:48:23.948Z,11.54
2019-04-05T21:51:14.602Z,11.55
2019-04-05T21:54:05.804Z,11.54
2019-04-05T21:56:42.542Z,11.51
2019-04-05T21:59:15.530Z,11.56
2019-04-05T22:01:47.483Z,11.51
2019-04-05T22:04:18.131Z,11.54
2019-04-05T22:06:52.964Z,11.55
2019-04-05T22:09:23.811Z,11.55
2019-04-05T22:11:54.060Z,11.51
2019-04-05T22:14:28.063Z,11.51
2019-04-05T22:16:59.015Z,11.51
2019-04-05T22:19:29.754Z,11.50
2019-04-05T22:22:07.829Z,11.49
2019-04-05T22:24:38.080Z,11.49
2019-04-05T22:27:08.987Z,11.54
2019-04-05T22:29:41.586Z,11.55
2019-04-05T22:32:12.928Z,11.52
2019-04-05T22:34:44.562Z,11.55
2019-04-05T22:37:15.927Z,11.54
2019-04-05T22:39:46.366Z,11.55
2019-04-05T22:42:18.376Z,11.50
2019-04-05T22:44:48.556Z,11.52
2019-04-05T22:47:19.195Z,11.54
2019-04-05T22:49:51.786Z,11.53
2019-04-05T22:52:22.739Z,11.58
2019-04-05T22:54:52.928Z,11.55
2019-04-05T22:57:24.658Z,11.56
2019-04-05T22:59:54.894Z,11.58
2019-04-05T23:02:25.576Z,11.61
2019-04-05T23:04:56.672Z,11.54
2019-04-05T23:07:26.916Z,11.48
2019-04-05T23:09:57.637Z,11.46
2019-04-05T23:12:28.675Z,11.47
2019-04-05T23:14:58.909Z,11.46
2019-04-05T23:17:29.254Z,11.53
2019-04-05T23:19:59.744Z,11.56
2019-04-05T23:22:32.421Z,11.57
2019-04-05T23:25:03.454Z,11.54
2019-04-05T23:27:34.527Z,11.58
2019-04-05T23:30:05.404Z,11.58
2019-04-05T23:32:35.781Z,11.54
2019-04-05T23:35:08.371Z,11.59
2019-04-05T23:37:38.792Z,11.59
2019-04-05T23:40:09.734Z,11.49
2019-04-05T23:42:40.044Z,11.49
2019-04-05T23:45:10.362Z,11.36
2019-04-05T23:47:41.410Z,11.21
2019-04-05T23:50:11.942Z,11.15
2019-04-05T23:52:42.666Z,11.12
2019-04-05T23:55:13.618Z,11.10
2019-04-05T23:57:44.242Z,11.11
